Time;durP1;ratioP1;P1;durP2;ratioP2;P2;SDS_P1;SDS_P2;PMS_P1;PMS_P2;Temp;Humidity;BMP_temperature;BMP_pressure;BME280_temperature;BME280_humidity;BME280_pressure;Samples;Min_cycle;Max_cycle;Signal;HPM_P1;HPM_P2
2021/07/04 00:00:29;;;;;;;3.35;1.67;;;;;;;18.29;53.15;93721.03;5053238;28;20178;-78
2021/07/04 00:02:56;;;;;;;3.55;2.17;;;;;;;18.34;53.28;93722.66;5061214;28;20063;-78
2021/07/04 00:05:26;;;;;;;2.72;1.90;;;;;;;18.33;53.28;93721.09;5068423;28;20025;-78
2021/07/04 00:07:52;;;;;;;3.92;1.55;;;;;;;18.24;52.92;93714.06;5065918;28;20521;-78
2021/07/04 00:10:30;;;;;;;2.92;2.20;;;;;;;18.23;53.44;93712.50;5064760;28;20044;-78
2021/07/04 00:12:56;;;;;;;2.80;2.10;;;;;;;18.24;53.24;93718.69;5056292;28;20032;-78
2021/07/04 00:15:23;;;;;;;4.65;2.20;;;;;;;18.28;53.64;93721.41;5062957;28;20032;-78
2021/07/04 00:17:50;;;;;;;3.30;2.38;;;;;;;18.30;53.61;93719.13;5070142;28;20111;-78
2021/07/04 00:20:18;;;;;;;3.55;1.92;;;;;;;18.33;53.44;93713.00;5062915;28;20408;-78
2021/07/04 00:22:45;;;;;;;7.40;2.10;;;;;;;18.29;53.24;93706.78;5070302;28;20041;-79
2021/07/04 00:25:14;;;;;;;3.95;2.63;;;;;;;18.25;53.57;93704.81;5071134;28;20081;-78
2021/07/04 00:27:40;;;;;;;2.97;2.05;;;;;;;18.24;53.66;93703.25;5065678;28;20082;-78
2021/07/04 00:30:08;;;;;;;3.53;2.22;;;;;;;18.22;53.75;93700.16;5056893;28;20365;-78
2021/07/04 00:32:34;;;;;;;3.35;1.90;;;;;;;18.22;53.80;93694.00;5051388;28;20029;-78
2021/07/04 00:34:59;;;;;;;5.72;2.30;;;;;;;18.22;53.46;93694.75;5060983;28;20056;-78
2021/07/04 00:37:25;;;;;;;3.08;2.13;;;;;;;18.19;53.71;93700.09;5062764;28;20066;-83
2021/07/04 00:39:50;;;;;;;3.83;1.98;;;;;;;18.15;53.55;93693.88;5063404;28;20470;-84
2021/07/04 00:42:16;;;;;;;6.38;2.63;;;;;;;18.11;53.71;93688.44;5060490;28;20024;-84
2021/07/04 00:44:41;;;;;;;4.95;1.83;;;;;;;18.10;53.86;93686.13;5062839;28;20476;-82
2021/07/04 00:47:07;;;;;;;3.65;2.30;;;;;;;18.12;54.07;93684.59;5063620;28;20074;-82
2021/07/04 00:49:33;;;;;;;4.60;2.50;;;;;;;18.07;54.07;93681.44;5060515;28;20078;-81
2021/07/04 00:51:59;;;;;;;3.05;1.75;;;;;;;18.04;54.02;93677.56;5050928;28;20080;-82
2021/07/04 00:54:26;;;;;;;6.85;3.40;;;;;;;18.04;54.22;93682.94;5053606;28;20479;-81
2021/07/04 00:56:51;;;;;;;5.55;2.53;;;;;;;17.99;54.28;93680.56;5050888;28;20025;-82
2021/07/04 00:59:19;;;;;;;4.32;2.70;;;;;;;17.96;54.04;93681.31;5063981;28;20022;-81
2021/07/04 01:01:45;;;;;;;3.33;2.30;;;;;;;18.02;54.45;93685.22;5058312;28;20508;-81
2021/07/04 01:04:10;;;;;;;3.10;2.15;;;;;;;18.02;54.23;93691.41;5070604;28;20073;-82
2021/07/04 01:06:36;;;;;;;3.15;2.10;;;;;;;17.98;53.48;93690.56;5057801;28;20017;-81
2021/07/04 01:09:01;;;;;;;4.20;2.10;;;;;;;17.98;53.50;93692.50;5059296;28;20086;-81
2021/07/04 01:11:26;;;;;;;2.55;1.85;;;;;;;17.92;53.76;93689.34;5054494;28;20396;-81
2021/07/04 01:13:52;;;;;;;2.78;1.95;;;;;;;17.88;53.71;93687.72;5061984;28;20107;-81
2021/07/04 01:16:18;;;;;;;4.43;1.98;;;;;;;17.83;54.40;93689.59;5049149;28;20484;-81
2021/07/04 01:18:43;;;;;;;5.20;1.98;;;;;;;17.77;54.92;93696.41;5049230;28;20453;-81
2021/07/04 01:21:10;;;;;;;7.40;1.85;;;;;;;17.67;55.08;93691.63;5049393;28;20028;-81
2021/07/04 01:23:35;;;;;;;4.05;2.35;;;;;;;17.70;55.32;93695.50;5060210;28;20108;-81
2021/07/04 01:26:01;;;;;;;4.57;1.90;;;;;;;17.75;55.20;93687.91;5050440;28;20052;-81
2021/07/04 01:28:27;;;;;;;3.30;2.15;;;;;;;17.73;55.04;93684.78;5067264;28;20415;-81
2021/07/04 01:30:57;;;;;;;3.63;2.17;;;;;;;17.73;55.20;93684.03;5069202;28;20407;-81
2021/07/04 01:33:23;;;;;;;3.53;1.98;;;;;;;17.75;55.57;93685.22;5062059;28;20035;-81
2021/07/04 01:35:48;;;;;;;3.05;2.35;;;;;;;17.71;55.16;93679.00;5060255;28;20056;-81
2021/07/04 01:38:14;;;;;;;2.92;1.83;;;;;;;17.72;55.42;93677.06;5061783;28;20021;-81
2021/07/04 01:40:39;;;;;;;3.78;2.50;;;;;;;17.60;55.37;93675.34;5065470;28;20513;-81
2021/07/04 01:43:05;;;;;;;5.13;2.20;;;;;;;17.58;55.71;93677.63;5069678;28;20024;-82
2021/07/04 01:45:30;;;;;;;7.85;2.90;;;;;;;17.54;55.97;93677.56;5067015;28;20024;-82
2021/07/04 01:47:56;;;;;;;3.28;2.20;;;;;;;17.48;55.54;93667.44;5054927;28;20024;-81
2021/07/04 01:50:27;;;;;;;5.10;2.20;;;;;;;17.50;55.31;93670.56;5067187;28;20024;-80
2021/07/04 01:52:53;;;;;;;3.63;1.83;;;;;;;17.48;54.89;93662.06;5057375;28;20027;-81
2021/07/04 01:55:19;;;;;;;3.55;2.25;;;;;;;17.51;54.84;93672.91;5049999;28;20021;-81
2021/07/04 01:57:46;;;;;;;3.30;2.42;;;;;;;17.52;54.95;93674.44;5069138;28;20021;-81
2021/07/04 02:00:22;;;;;;;3.42;1.90;;;;;;;17.48;54.89;93670.16;5050509;28;20037;-81
2021/07/04 02:02:50;;;;;;;3.13;1.92;;;;;;;17.50;54.63;93670.56;5051386;28;20032;-81
2021/07/04 02:05:16;;;;;;;4.72;2.38;;;;;;;17.53;54.97;93667.94;5061807;28;20024;-81
2021/07/04 02:07:41;;;;;;;3.33;2.22;;;;;;;17.50;54.52;93675.94;5068215;28;20112;-81
2021/07/04 02:10:09;;;;;;;3.80;2.25;;;;;;;17.52;54.44;93668.28;5057459;28;20488;-81
2021/07/04 02:12:34;;;;;;;5.47;1.80;;;;;;;17.56;53.84;93658.34;5057957;28;20120;-80
2021/07/04 02:15:00;;;;;;;3.13;2.00;;;;;;;17.59;53.84;93649.53;5049869;28;20461;-81
2021/07/04 02:17:25;;;;;;;4.93;2.03;;;;;;;17.58;53.46;93647.97;5059682;28;20492;-81
2021/07/04 02:19:51;;;;;;;3.22;1.80;;;;;;;17.59;53.59;93663.03;5050890;28;20029;-81
2021/07/04 02:22:16;;;;;;;3.45;2.05;;;;;;;17.61;53.26;93656.13;5054656;28;20097;-81
2021/07/04 02:24:42;;;;;;;3.25;2.08;;;;;;;17.67;53.16;93663.88;5069556;28;20058;-81
2021/07/04 02:27:10;;;;;;;5.90;2.63;;;;;;;17.72;53.00;93675.13;5068348;28;20477;-81
2021/07/04 02:29:39;;;;;;;3.00;1.95;;;;;;;17.71;53.32;93668.22;5059776;28;20126;-81
2021/07/04 02:32:06;;;;;;;3.53;2.10;;;;;;;17.74;53.41;93672.84;5066265;28;20037;-81
2021/07/04 02:34:32;;;;;;;7.53;2.10;;;;;;;17.78;53.67;93671.00;5068260;28;20040;-81
2021/07/04 02:36:58;;;;;;;3.42;2.25;;;;;;;17.77;53.46;93679.47;5067753;28;20028;-81
2021/07/04 02:39:23;;;;;;;6.50;2.58;;;;;;;17.78;53.64;93671.00;5069518;28;20395;-81
2021/07/04 02:41:50;;;;;;;6.63;2.28;;;;;;;17.80;54.10;93671.41;5068044;28;20113;-82
2021/07/04 02:44:15;;;;;;;4.00;2.40;;;;;;;17.78;53.93;93679.09;5057710;28;20052;-81
2021/07/04 02:46:41;;;;;;;4.38;2.40;;;;;;;17.80;54.35;93670.63;5049797;28;20420;-81
2021/07/04 02:49:06;;;;;;;4.03;2.38;;;;;;;17.84;54.41;93668.81;5061190;28;20031;-82
2021/07/04 02:51:33;;;;;;;6.65;2.78;;;;;;;17.83;54.24;93668.03;5052690;28;20450;-81
2021/07/04 02:53:59;;;;;;;4.35;2.60;;;;;;;17.84;54.61;93672.28;5057552;28;20108;-81
2021/07/04 02:56:24;;;;;;;3.13;2.28;;;;;;;17.81;54.98;93672.97;5055190;28;20151;-81
2021/07/04 02:58:50;;;;;;;5.53;2.65;;;;;;;17.82;54.92;93674.53;5068195;28;20064;-81
2021/07/04 03:01:15;;;;;;;3.83;2.85;;;;;;;17.81;55.39;93677.59;5069592;28;20516;-81
2021/07/04 03:03:41;;;;;;;6.93;2.95;;;;;;;17.84;55.43;93666.09;5066844;28;20019;-81
2021/07/04 03:06:06;;;;;;;5.47;2.30;;;;;;;17.82;55.58;93669.13;5058119;28;20499;-81
2021/07/04 03:08:31;;;;;;;7.28;2.90;;;;;;;17.86;55.65;93665.75;5063924;28;20040;-81
2021/07/04 03:10:57;;;;;;;8.52;2.65;;;;;;;17.88;55.10;93668.84;5067885;28;20028;-80
2021/07/04 03:13:22;;;;;;;7.13;2.40;;;;;;;17.89;55.18;93665.00;5060656;28;20023;-80
2021/07/04 03:15:48;;;;;;;13.27;3.67;;;;;;;17.91;55.61;93666.22;5053014;28;20112;-80
2021/07/04 03:18:14;;;;;;;9.90;2.92;;;;;;;17.95;55.23;93679.72;5055811;28;20403;-80
2021/07/04 03:20:39;;;;;;;4.22;2.30;;;;;;;17.92;55.66;93677.78;5068654;28;20472;-80
2021/07/04 03:23:05;;;;;;;7.10;2.92;;;;;;;17.96;55.32;93686.69;5060806;28;20028;-80
2021/07/04 03:25:30;;;;;;;7.50;2.95;;;;;;;17.98;55.14;93684.41;5065283;28;20123;-83
2021/07/04 03:27:56;;;;;;;4.65;3.08;;;;;;;17.98;55.53;93690.56;5070131;28;20059;-83
2021/07/04 03:30:22;;;;;;;7.15;3.22;;;;;;;17.96;55.72;93698.25;5054502;28;20063;-83
2021/07/04 03:32:49;;;;;;;7.47;3.17;;;;;;;18.00;55.37;93690.22;5064909;28;20032;-83
2021/07/04 03:35:15;;;;;;;5.00;3.22;;;;;;;18.01;55.20;93689.84;5073557;28;20052;-83
2021/07/04 03:37:42;;;;;;;6.43;2.88;;;;;;;18.08;55.09;93699.97;5057392;28;20036;-83
2021/07/04 03:40:11;;;;;;;4.35;3.10;;;;;;;18.01;55.21;93692.56;5061838;28;20033;-83
2021/07/04 03:42:36;;;;;;;5.70;2.97;;;;;;;18.04;54.87;93701.84;5070654;28;20121;-83
2021/07/04 03:45:04;;;;;;;5.10;3.22;;;;;;;18.02;55.28;93706.81;5061521;28;20468;-83
2021/07/04 03:47:29;;;;;;;6.93;3.10;;;;;;;18.10;55.25;93697.69;5062923;28;20046;-84
2021/07/04 03:49:56;;;;;;;4.50;2.63;;;;;;;18.13;55.54;93702.31;5053816;28;20025;-83
2021/07/04 03:52:21;;;;;;;5.05;3.10;;;;;;;18.19;54.82;93700.88;5064604;28;20059;-83
2021/07/04 03:54:47;;;;;;;17.67;3.30;;;;;;;18.20;55.38;93696.28;5055505;28;20021;-83
2021/07/04 03:57:22;;;;;;;4.40;2.97;;;;;;;18.18;55.01;93703.97;5075443;28;20024;-82
2021/07/04 03:59:53;;;;;;;4.35;3.10;;;;;;;18.24;55.10;93708.66;5062186;28;20036;-83
2021/07/04 04:02:19;;;;;;;7.43;3.33;;;;;;;18.35;54.90;93699.94;5066589;28;20029;-83
2021/07/04 04:04:45;;;;;;;6.50;3.17;;;;;;;18.31;54.64;93707.19;5062380;28;20036;-83
2021/07/04 04:07:10;;;;;;;5.88;3.17;;;;;;;18.34;54.87;93711.84;5058921;28;20025;-83
2021/07/04 04:09:36;;;;;;;5.32;2.95;;;;;;;18.40;54.46;93707.72;5062669;28;20029;-83
2021/07/04 04:12:02;;;;;;;6.00;2.55;;;;;;;18.38;54.50;93696.50;5064453;28;20475;-84
2021/07/04 04:14:27;;;;;;;5.05;3.28;;;;;;;18.37;54.72;93693.00;5062940;28;20025;-84
2021/07/04 04:16:52;;;;;;;5.93;3.55;;;;;;;18.43;54.99;93706.97;5060756;28;20029;-84
2021/07/04 04:19:18;;;;;;;7.07;3.63;;;;;;;18.50;53.67;93712.47;5059755;28;20047;-84
2021/07/04 04:21:43;;;;;;;4.45;3.10;;;;;;;18.51;54.07;93708.63;5062885;28;20106;-83
2021/07/04 04:24:09;;;;;;;6.65;3.20;;;;;;;18.49;54.16;93702.81;5076889;28;20483;-83
2021/07/04 04:26:34;;;;;;;5.13;3.33;;;;;;;18.49;54.31;93713.59;5059624;28;20021;-81
2021/07/04 04:28:59;;;;;;;6.00;3.20;;;;;;;18.53;54.16;93716.34;5052822;28;20028;-82
2021/07/04 04:31:25;;;;;;;11.05;3.90;;;;;;;18.51;53.98;93716.72;5050018;28;20112;-82
2021/07/04 04:33:50;;;;;;;6.13;3.42;;;;;;;18.64;54.05;93722.66;5060208;28;20104;-82
2021/07/04 04:36:16;;;;;;;6.80;3.13;;;;;;;18.66;54.14;93723.06;5052662;28;20049;-82
2021/07/04 04:38:41;;;;;;;5.40;3.50;;;;;;;18.64;53.72;93720.75;5067801;28;20034;-80
2021/07/04 04:41:06;;;;;;;8.27;3.75;;;;;;;18.70;54.29;93737.38;5059096;28;20020;-85
2021/07/04 04:43:32;;;;;;;7.53;3.20;;;;;;;18.76;53.51;93724.34;5065636;28;20388;-85
2021/07/04 04:45:57;;;;;;;4.72;3.13;;;;;;;18.78;53.89;93730.13;5071105;28;20024;-85
2021/07/04 04:48:23;;;;;;;4.72;3.53;;;;;;;18.80;53.21;93723.25;5064612;28;20472;-85
2021/07/04 04:50:48;;;;;;;6.82;3.22;;;;;;;18.91;53.74;93728.78;5062369;28;20485;-86
2021/07/04 04:53:13;;;;;;;7.57;3.60;;;;;;;18.93;54.13;93723.00;5067206;28;20024;-85
2021/07/04 04:55:39;;;;;;;5.15;3.10;;;;;;;19.00;54.10;93720.41;5060687;28;20028;-82
2021/07/04 04:58:04;;;;;;;8.40;3.25;;;;;;;19.00;53.93;93731.97;5049456;28;20021;-82
2021/07/04 05:00:30;;;;;;;6.07;3.22;;;;;;;19.08;54.03;93726.66;5049548;28;20400;-82
2021/07/04 05:02:55;;;;;;;6.28;3.03;;;;;;;19.10;53.28;93730.53;5061246;28;20023;-82
2021/07/04 05:05:21;;;;;;;6.28;3.00;;;;;;;19.07;52.86;93725.09;5070833;28;20039;-82
2021/07/04 05:07:46;;;;;;;6.78;3.72;;;;;;;19.09;52.84;93725.50;5052699;28;20020;-82
2021/07/04 05:10:12;;;;;;;5.97;3.80;;;;;;;19.06;53.00;93731.66;5068135;28;20017;-82
2021/07/04 05:12:38;;;;;;;5.28;3.08;;;;;;;19.08;52.71;93730.13;5054692;28;20082;-82
2021/07/04 05:15:04;;;;;;;6.50;3.33;;;;;;;19.16;52.42;93723.66;5061543;28;20437;-82
2021/07/04 05:17:29;;;;;;;6.07;3.45;;;;;;;19.16;52.85;93729.06;5074912;28;20021;-83
2021/07/04 05:19:54;;;;;;;4.60;3.22;;;;;;;19.16;52.88;93737.16;5071591;28;20047;-83
2021/07/04 05:22:20;;;;;;;5.00;3.33;;;;;;;19.19;52.93;93738.34;5071678;28;20088;-83
2021/07/04 05:24:46;;;;;;;8.18;3.47;;;;;;;19.18;52.29;93732.16;5077925;28;20020;-82
2021/07/04 05:27:11;;;;;;;4.57;3.10;;;;;;;19.14;52.69;93731.34;5081266;28;20080;-83
2021/07/04 05:29:37;;;;;;;4.63;3.42;;;;;;;19.18;52.11;93744.91;5079458;28;20047;-83
2021/07/04 05:32:02;;;;;;;4.22;2.58;;;;;;;19.12;52.11;93744.44;5077269;28;20080;-83
2021/07/04 05:34:28;;;;;;;13.32;3.10;;;;;;;19.09;52.97;93744.41;5065185;28;20494;-83
2021/07/04 05:36:53;;;;;;;5.88;3.35;;;;;;;19.19;52.37;93744.53;5066023;28;20365;-82
2021/07/04 05:39:19;;;;;;;5.72;2.83;;;;;;;19.26;52.54;93748.47;5061626;28;20028;-83
2021/07/04 05:41:44;;;;;;;5.18;3.83;;;;;;;19.17;52.84;93736.03;5061612;28;20085;-83
2021/07/04 05:44:10;;;;;;;6.57;3.63;;;;;;;19.25;52.80;93742.25;5064304;28;20419;-82
2021/07/04 05:46:36;;;;;;;9.32;3.38;;;;;;;19.25;52.57;93742.25;5066280;28;20146;-83
2021/07/04 05:49:02;;;;;;;6.47;3.33;;;;;;;19.25;51.96;93742.25;5060066;28;20060;-82
2021/07/04 05:51:28;;;;;;;7.05;2.97;;;;;;;19.38;52.60;93746.25;5069663;28;20032;-83
2021/07/04 05:53:53;;;;;;;4.88;3.20;;;;;;;19.35;51.69;93743.53;5070067;28;20105;-83
2021/07/04 05:56:18;;;;;;;6.20;3.88;;;;;;;19.34;52.19;93745.44;5063407;28;20140;-83
2021/07/04 05:58:44;;;;;;;5.93;3.42;;;;;;;19.48;51.69;93754.81;5060488;28;20035;-83
2021/07/04 06:01:09;;;;;;;4.68;3.60;;;;;;;19.50;51.13;93742.53;5060538;28;20468;-80
2021/07/04 06:03:35;;;;;;;6.88;3.97;;;;;;;19.51;52.20;93754.88;5062920;28;20029;-81
2021/07/04 06:06:00;;;;;;;5.25;3.22;;;;;;;19.49;51.21;93756.41;5062434;28;20043;-80
2021/07/04 06:08:26;;;;;;;8.57;3.17;;;;;;;19.56;50.85;93751.84;5060443;28;20021;-80
2021/07/04 06:10:51;;;;;;;6.18;3.25;;;;;;;19.67;51.77;93746.53;5064923;28;20604;-80
2021/07/04 06:13:18;;;;;;;5.68;3.60;;;;;;;19.81;50.91;93738.56;5060566;28;20062;-81
2021/07/04 06:15:44;;;;;;;6.88;3.13;;;;;;;19.82;50.90;93745.53;5059534;28;20028;-80
2021/07/04 06:18:09;;;;;;;4.63;3.28;;;;;;;19.85;51.35;93741.28;5071409;28;20043;-82
2021/07/04 06:20:35;;;;;;;6.47;3.92;;;;;;;19.92;51.66;93735.91;5064922;28;20055;-81
2021/07/04 06:23:00;;;;;;;5.10;3.60;;;;;;;19.98;50.83;93736.34;5063572;28;20113;-79
2021/07/04 06:25:26;;;;;;;8.82;3.40;;;;;;;20.09;50.39;93729.09;5056627;28;20479;-80
2021/07/04 06:27:51;;;;;;;4.88;3.17;;;;;;;20.17;50.19;93741.53;5063772;28;20052;-79
2021/07/04 06:30:18;;;;;;;5.95;3.83;;;;;;;20.29;50.83;93747.78;5070853;28;20020;-79
2021/07/04 06:32:43;;;;;;;8.52;3.95;;;;;;;20.42;48.92;93736.25;5056262;28;20054;-81
2021/07/04 06:35:11;;;;;;;4.45;3.42;;;;;;;20.54;49.40;93740.59;5072437;28;20037;-79
2021/07/04 06:37:36;;;;;;;5.78;3.33;;;;;;;20.61;46.87;93731.75;5069747;28;20485;-82
2021/07/04 06:40:05;;;;;;;4.93;2.80;;;;;;;20.61;47.50;93732.50;5078664;28;20032;-81
2021/07/04 06:42:30;;;;;;;5.03;2.92;;;;;;;20.59;47.39;93734.81;5093100;28;20024;-82
2021/07/04 06:44:56;;;;;;;4.70;3.60;;;;;;;20.63;47.81;93734.84;5083724;28;20037;-81
2021/07/04 06:47:21;;;;;;;6.82;4.05;;;;;;;20.57;49.91;93731.69;5061505;28;20029;-66
2021/07/04 06:49:46;;;;;;;10.25;3.78;;;;;;;20.73;49.33;93725.22;5052838;28;20036;-65
2021/07/04 06:52:12;;;;;;;6.03;3.22;;;;;;;20.85;48.04;93730.31;5052884;28;20032;-65
2021/07/04 06:54:37;;;;;;;6.50;3.85;;;;;;;20.91;47.78;93736.13;5069300;28;20163;-65
2021/07/04 06:59:47;;;;;;;7.45;3.38;;;;;;;21.00;46.79;93734.63;5072583;28;20137;-66
2021/07/04 07:02:12;;;;;;;4.80;3.40;;;;;;;21.09;47.11;93722.66;5071304;28;20110;-67
2021/07/04 07:04:38;;;;;;;6.97;3.17;;;;;;;21.23;47.05;93719.97;5072365;28;20020;-66
2021/07/04 07:07:03;;;;;;;6.57;3.10;;;;;;;21.32;47.10;93717.66;5072651;28;20029;-66
2021/07/04 07:09:29;;;;;;;6.70;3.70;;;;;;;21.43;45.94;93713.06;5072320;28;20029;-66
2021/07/04 07:11:54;;;;;;;6.18;3.25;;;;;;;21.43;46.09;93715.78;5071078;28;20437;-64
2021/07/04 07:14:21;;;;;;;4.70;3.33;;;;;;;21.41;44.61;93712.66;5070852;28;20028;-64
2021/07/04 07:16:47;;;;;;;7.75;3.88;;;;;;;21.39;45.00;93709.53;5065287;28;20082;-65
2021/07/04 07:19:12;;;;;;;7.95;3.50;;;;;;;21.41;45.35;93715.38;5072504;28;20032;-65
2021/07/04 07:21:38;;;;;;;9.07;3.65;;;;;;;21.48;45.59;93706.47;5051398;28;20032;-66
2021/07/04 07:24:04;;;;;;;5.47;3.22;;;;;;;21.55;45.48;93711.13;5052143;28;20040;-65
2021/07/04 07:26:29;;;;;;;7.93;3.97;;;;;;;21.43;44.66;93710.34;5056657;28;20424;-67
2021/07/04 07:28:54;;;;;;;5.97;3.72;;;;;;;21.36;45.49;93704.88;5071763;28;20032;-64
2021/07/04 07:41:38;;;;;;;10.75;4.18;;;;;;;21.67;45.03;93707.25;4835655;29;20122;-73
2021/07/04 07:44:04;;;;;;;10.32;4.28;;;;;;;21.90;45.26;93704.16;4943812;29;20035;-73
2021/07/04 07:46:29;;;;;;;4.75;3.60;;;;;;;22.08;44.10;93704.13;5027577;28;20388;-73
2021/07/04 07:48:55;;;;;;;7.38;3.53;;;;;;;22.27;42.91;93689.41;5056465;28;20111;-72
2021/07/04 07:51:20;;;;;;;6.95;4.00;;;;;;;22.58;43.51;93699.41;5061726;28;20052;-73
2021/07/04 07:53:46;;;;;;;6.57;3.58;;;;;;;22.72;42.93;93712.16;5062049;28;20021;-73
2021/07/04 07:56:11;;;;;;;5.75;3.20;;;;;;;22.78;41.75;93697.00;5063455;28;20479;-69
2021/07/04 07:58:37;;;;;;;10.48;3.60;;;;;;;22.74;43.58;93700.91;5069054;28;20395;-66
2021/07/04 08:01:03;;;;;;;8.27;3.55;;;;;;;22.51;42.69;93694.00;5071213;28;20107;-66
2021/07/04 08:03:28;;;;;;;6.72;3.40;;;;;;;22.53;40.83;93694.38;5069994;28;20024;-66
2021/07/04 08:05:54;;;;;;;5.88;3.50;;;;;;;22.54;42.10;93703.31;5071278;28;20028;-66
2021/07/04 08:08:19;;;;;;;5.85;3.20;;;;;;;22.56;40.37;93690.88;5071327;28;20104;-65
2021/07/04 08:10:45;;;;;;;4.60;3.13;;;;;;;22.58;42.24;93685.06;5063882;28;20028;-65
2021/07/04 08:13:10;;;;;;;7.10;3.20;;;;;;;22.49;41.25;93693.63;5049895;28;20021;-65
2021/07/04 08:15:36;;;;;;;4.53;3.00;;;;;;;22.39;41.93;93691.72;5060066;28;20060;-65
2021/07/04 08:18:01;;;;;;;7.45;2.95;;;;;;;22.53;42.53;93685.44;5069477;28;20514;-66
2021/07/04 08:20:27;;;;;;;11.38;3.60;;;;;;;22.71;42.42;93679.94;5071033;28;20036;-66
2021/07/04 08:22:52;;;;;;;5.07;3.13;;;;;;;22.88;41.18;93691.91;5071125;28;20035;-66
2021/07/04 08:25:18;;;;;;;6.72;4.00;;;;;;;22.83;42.59;93691.16;5069568;28;20031;-64
2021/07/04 08:27:45;;;;;;;5.80;3.25;;;;;;;22.95;43.00;93694.59;5069859;28;20029;-72
2021/07/04 08:30:12;;;;;;;6.78;3.13;;;;;;;23.01;43.60;93698.44;5069726;28;20028;-72
2021/07/04 08:32:38;;;;;;;4.95;3.17;;;;;;;22.99;41.29;93690.69;5071126;28;20450;-64
2021/07/04 08:35:05;;;;;;;3.92;3.10;;;;;;;22.95;42.01;93684.50;5069741;28;20028;-64
2021/07/04 08:37:30;;;;;;;4.05;2.75;;;;;;;23.10;42.25;93687.97;5070468;28;20032;-65
2021/07/04 08:39:56;;;;;;;11.20;3.60;;;;;;;23.15;41.74;93684.81;5069332;28;20069;-65
2021/07/04 08:42:21;;;;;;;7.82;3.10;;;;;;;23.30;42.58;93682.00;5068878;28;20043;-64
2021/07/04 08:44:53;;;;;;;6.50;4.00;;;;;;;23.18;42.82;93683.25;5069197;28;20036;-65
2021/07/04 08:47:22;;;;;;;10.05;3.58;;;;;;;22.94;41.74;93685.69;5070654;28;20021;-65
2021/07/04 08:49:49;;;;;;;4.68;3.03;;;;;;;22.90;43.40;93681.41;5069161;28;20036;-66
2021/07/04 08:52:15;;;;;;;4.70;3.28;;;;;;;22.79;43.74;93681.47;5054327;28;20416;-65
2021/07/04 08:54:41;;;;;;;5.38;3.30;;;;;;;22.81;44.04;93679.13;5062838;28;20064;-65
2021/07/04 08:57:10;;;;;;;4.38;2.40;;;;;;;22.61;42.08;93670.66;5070088;28;20475;-64
2021/07/04 08:59:40;;;;;;;6.03;3.08;;;;;;;22.53;41.76;93680.00;5068824;28;20135;-64
2021/07/04 09:02:11;;;;;;;7.65;2.58;;;;;;;22.54;41.60;93671.47;5069935;28;20369;-64
2021/07/04 09:04:38;;;;;;;4.43;2.42;;;;;;;22.63;40.12;93654.75;5068516;28;20047;-64
2021/07/04 09:07:05;;;;;;;7.90;2.83;;;;;;;22.74;39.57;93673.75;5066125;28;20078;-64
2021/07/04 09:09:32;;;;;;;4.35;2.20;;;;;;;22.94;38.51;93677.53;5049996;28;20141;-64
2021/07/04 09:12:02;;;;;;;6.57;2.65;;;;;;;23.09;36.21;93680.19;5048944;28;20021;-64
2021/07/04 09:14:32;;;;;;;4.32;2.03;;;;;;;23.13;36.96;93668.13;5048674;28;20033;-65
2021/07/04 09:16:59;;;;;;;4.22;2.15;;;;;;;23.20;34.42;93673.53;5048073;28;20051;-66
2021/07/04 09:19:25;;;;;;;3.35;2.05;;;;;;;23.13;35.93;93678.22;5049516;28;20040;-65
2021/07/04 09:21:59;;;;;;;11.85;1.65;;;;;;;23.18;35.12;93664.22;5058823;28;20032;-65
2021/07/04 09:24:28;;;;;;;2.85;1.75;;;;;;;23.40;33.61;93668.34;5069931;28;20040;-65
2021/07/04 09:26:54;;;;;;;6.50;2.60;;;;;;;23.40;35.04;93668.34;5067990;28;20020;-65
2021/07/04 09:29:38;;;;;;;2.72;1.50;;;;;;;23.28;35.43;93662.59;5069523;28;20506;-65
2021/07/04 09:32:16;;;;;;;3.47;1.88;;;;;;;23.38;35.37;93662.50;5068675;28;20028;-67
2021/07/04 09:34:54;;;;;;;4.75;2.00;;;;;;;23.45;35.83;93650.84;5059832;28;20032;-68
2021/07/04 09:37:32;;;;;;;3.45;2.38;;;;;;;23.57;34.36;93663.16;5049783;28;20021;-67
2021/07/04 09:40:08;;;;;;;3.03;2.13;;;;;;;23.58;35.69;93664.72;5049375;28;20040;-69
2021/07/04 09:42:52;;;;;;;3.42;1.83;;;;;;;23.64;34.70;93649.50;5049508;28;20053;-67
2021/07/04 09:45:18;;;;;;;4.88;2.10;;;;;;;23.74;35.47;93672.38;5048380;28;20037;-63
2021/07/04 09:47:50;;;;;;;3.42;2.17;;;;;;;23.75;35.45;93655.66;5048166;28;20125;-64
2021/07/04 09:50:15;;;;;;;3.63;2.03;;;;;;;23.78;35.03;93645.94;5054200;28;20330;-64
2021/07/04 09:52:54;;;;;;;7.45;2.35;;;;;;;23.97;34.62;93637.19;5048192;28;20040;-64
2021/07/04 09:55:20;;;;;;;3.42;1.58;;;;;;;23.94;33.39;93650.84;5048032;28;20064;-63
2021/07/04 09:58:12;;;;;;;3.08;1.60;;;;;;;23.94;30.48;93640.72;5049388;28;20029;-64
2021/07/04 10:00:44;;;;;;;2.03;1.30;;;;;;;23.89;29.79;93651.28;5047587;28;20032;-70
2021/07/04 10:03:14;;;;;;;3.70;1.35;;;;;;;23.90;31.19;93636.50;5048423;28;20082;-68
2021/07/04 10:05:43;;;;;;;3.60;1.65;;;;;;;24.09;32.54;93637.88;5055597;28;20028;-71
2021/07/04 10:08:34;;;;;;;6.00;2.03;;;;;;;23.97;32.11;93630.97;5051160;28;20020;-69
2021/07/04 10:11:13;;;;;;;4.75;1.73;;;;;;;24.07;32.27;93626.59;5061935;28;20020;-71
2021/07/04 10:13:44;;;;;;;2.55;1.73;;;;;;;24.08;33.37;93603.63;5059603;28;20092;-70
2021/07/04 10:16:13;;;;;;;6.20;1.90;;;;;;;24.13;33.65;93623.03;5065532;28;20029;-70
2021/07/04 10:18:40;;;;;;;2.92;1.92;;;;;;;24.13;32.99;93624.97;5056293;28;20024;-70
2021/07/04 10:21:07;;;;;;;5.78;1.77;;;;;;;24.01;33.39;93615.38;5057478;28;20025;-71
2021/07/04 10:23:32;;;;;;;2.80;1.77;;;;;;;24.04;31.87;93625.47;5059963;28;20078;-70
2021/07/04 10:25:59;;;;;;;6.18;2.15;;;;;;;24.06;32.46;93603.25;5067753;28;20032;-71
2021/07/04 10:28:35;;;;;;;5.25;2.08;;;;;;;24.30;31.69;93623.25;5056465;28;20013;-70
2021/07/04 10:31:12;;;;;;;2.92;1.70;;;;;;;24.33;31.21;93615.03;5055193;28;20028;-69
2021/07/04 10:33:38;;;;;;;3.85;1.90;;;;;;;24.15;31.88;93609.78;5058892;28;20108;-71
2021/07/04 10:36:18;;;;;;;4.10;1.92;;;;;;;24.08;33.38;93603.63;5054020;28;20275;-70
2021/07/04 10:39:00;;;;;;;4.50;2.35;;;;;;;23.97;34.40;93609.97;5061868;28;20029;-71
2021/07/04 10:41:34;;;;;;;5.13;2.25;;;;;;;24.07;34.51;93608.31;5052184;28;20052;-70
2021/07/04 10:44:11;;;;;;;3.40;2.40;;;;;;;24.15;34.13;93598.88;5058055;28;20029;-70
2021/07/04 10:49:30;;;;;;;3.47;2.30;;;;;;;24.29;33.89;93602.66;5068477;28;20487;-70
2021/07/04 10:51:58;;;;;;;3.80;2.45;;;;;;;24.33;33.32;93606.09;5068840;28;20031;-66
2021/07/04 10:54:38;;;;;;;3.58;2.55;;;;;;;24.37;34.62;93601.38;5052646;28;20056;-66
2021/07/04 10:57:13;;;;;;;4.05;2.05;;;;;;;24.41;33.99;93593.94;5052614;28;20492;-65
2021/07/04 10:59:51;;;;;;;4.15;2.85;;;;;;;24.35;34.58;93611.91;5055500;28;20032;-65
2021/07/04 11:02:38;;;;;;;6.25;2.40;;;;;;;24.31;35.57;93594.84;5070774;28;20029;-66
2021/07/04 11:05:05;;;;;;;7.43;2.80;;;;;;;24.48;36.00;93582.94;5053209;28;20028;-65
2021/07/04 11:07:53;;;;;;;3.58;2.50;;;;;;;24.56;36.10;93584.44;5052239;28;20040;-66
2021/07/04 11:10:30;;;;;;;4.60;2.80;;;;;;;24.70;35.16;93588.16;5052355;28;20123;-66
2021/07/04 11:13:16;;;;;;;8.10;2.83;;;;;;;24.69;35.94;93586.59;5060710;28;20506;-67
2021/07/04 11:15:48;;;;;;;4.25;3.00;;;;;;;24.78;33.85;93579.47;5051473;28;20104;-66
2021/07/04 11:18:20;;;;;;;5.97;2.80;;;;;;;24.81;34.30;93586.03;5051484;28;20135;-67
2021/07/04 11:20:49;;;;;;;;;;;;;;;24.82;35.06;93591.09;5052376;28;20538;-66
2021/07/04 11:23:27;;;;;;;4.65;2.47;;;;;;;24.49;35.58;93589.19;5052070;28;20399;-67
2021/07/04 11:25:57;;;;;;;3.47;2.53;;;;;;;24.46;36.08;93579.84;5050644;28;20035;-67
2021/07/04 11:28:31;;;;;;;7.38;2.40;;;;;;;24.55;34.08;93582.91;5051921;28;20029;-67
2021/07/04 11:31:06;;;;;;;7.75;2.70;;;;;;;24.72;32.51;93574.91;5050762;28;20117;-67
2021/07/04 11:33:36;;;;;;;4.82;2.35;;;;;;;24.68;33.12;93579.63;5050902;28;20077;-66
2021/07/04 11:36:15;;;;;;;3.42;2.17;;;;;;;24.77;33.31;93579.88;5051934;28;20503;-66
2021/07/04 11:38:44;;;;;;;4.03;2.10;;;;;;;24.86;35.25;93563.78;5051782;28;20086;-70
2021/07/04 11:41:14;;;;;;;3.90;2.53;;;;;;;24.80;33.13;93570.88;5058555;28;20053;-68
2021/07/04 11:43:42;;;;;;;5.38;2.47;;;;;;;24.61;33.95;93577.78;5051868;28;20424;-67
2021/07/04 11:46:13;;;;;;;4.18;2.30;;;;;;;24.57;34.68;93575.09;5052076;28;20025;-68
2021/07/04 11:49:02;;;;;;;3.35;2.60;;;;;;;24.73;34.95;93562.78;5051875;28;20033;-68
2021/07/04 11:51:35;;;;;;;3.50;2.58;;;;;;;24.81;34.74;93577.88;5051551;28;20020;-69